sensor_id;sensor_type;location;lat;lon;timestamp;P1;durP1;ratioP1;P2;durP2;ratioP2
9958;SDS011;5019;48.012;7.812;2023-04-09T00:02:24;15.17;;;6.57;;
9958;SDS011;5019;48.012;7.812;2023-04-09T00:04:50;8.87;;;6.13;;
9958;SDS011;5019;48.012;7.812;2023-04-09T00:07:16;7.53;;;6.30;;
9958;SDS011;5019;48.012;7.812;2023-04-09T00:09:42;9.57;;;5.97;;
9958;SDS011;5019;48.012;7.812;2023-04-09T00:12:08;9.73;;;6.67;;
9958;SDS011;5019;48.012;7.812;2023-04-09T00:14:34;7.30;;;5.23;;
9958;SDS011;5019;48.012;7.812;2023-04-09T00:17:00;8.67;;;6.07;;
9958;SDS011;5019;48.012;7.812;2023-04-09T00:19:26;8.17;;;6.20;;
9958;SDS011;5019;48.012;7.812;2023-04-09T00:21:52;8.10;;;5.80;;
9958;SDS011;5019;48.012;7.812;2023-04-09T00:24:18;9.73;;;6.93;;
9958;SDS011;5019;48.012;7.812;2023-04-09T00:26:44;7.80;;;6.43;;
9958;SDS011;5019;48.012;7.812;2023-04-09T00:29:10;13.03;;;7.00;;
9958;SDS011;5019;48.012;7.812;2023-04-09T00:31:36;9.97;;;5.93;;
9958;SDS011;5019;48.012;7.812;2023-04-09T00:34:02;8.63;;;6.03;;
9958;SDS011;5019;48.012;7.812;2023-04-09T00:36:29;7.53;;;5.33;;
9958;SDS011;5019;48.012;7.812;2023-04-09T00:38:55;8.10;;;6.90;;
9958;SDS011;5019;48.012;7.812;2023-04-09T00:41:21;8.00;;;6.30;;
9958;SDS011;5019;48.012;7.812;2023-04-09T00:43:47;8.80;;;6.30;;
9958;SDS011;5019;48.012;7.812;2023-04-09T00:46:13;8.90;;;5.70;;
9958;SDS011;5019;48.012;7.812;2023-04-09T00:48:40;7.00;;;5.93;;
9958;SDS011;5019;48.012;7.812;2023-04-09T00:51:06;8.87;;;5.30;;
9958;SDS011;5019;48.012;7.812;2023-04-09T00:53:33;6.80;;;5.50;;
9958;SDS011;5019;48.012;7.812;2023-04-09T00:55:59;10.50;;;6.10;;
9958;SDS011;5019;48.012;7.812;2023-04-09T00:58:25;10.70;;;5.93;;
9958;SDS011;5019;48.012;7.812;2023-04-09T01:00:51;9.83;;;5.97;;
9958;SDS011;5019;48.012;7.812;2023-04-09T01:03:17;8.20;;;5.17;;
9958;SDS011;5019;48.012;7.812;2023-04-09T01:10:45;10.53;;;6.67;;
9958;SDS011;5019;48.012;7.812;2023-04-09T01:13:32;7.40;;;5.30;;
9958;SDS011;5019;48.012;7.812;2023-04-09T01:16:00;5.27;;;4.77;;
9958;SDS011;5019;48.012;7.812;2023-04-09T01:18:34;8.90;;;6.70;;
9958;SDS011;5019;48.012;7.812;2023-04-09T01:21:05;10.03;;;6.80;;
9958;SDS011;5019;48.012;7.812;2023-04-09T01:23:42;12.00;;;6.20;;
9958;SDS011;5019;48.012;7.812;2023-04-09T01:28:42;5.77;;;5.27;;
9958;SDS011;5019;48.012;7.812;2023-04-09T01:31:10;9.87;;;6.13;;
9958;SDS011;5019;48.012;7.812;2023-04-09T01:33:37;8.60;;;6.47;;
9958;SDS011;5019;48.012;7.812;2023-04-09T01:36:04;9.13;;;7.23;;
9958;SDS011;5019;48.012;7.812;2023-04-09T01:38:31;9.97;;;6.10;;
9958;SDS011;5019;48.012;7.812;2023-04-09T01:40:58;10.97;;;7.20;;
9958;SDS011;5019;48.012;7.812;2023-04-09T01:43:24;14.60;;;8.63;;
9958;SDS011;5019;48.012;7.812;2023-04-09T01:45:51;9.80;;;6.90;;
9958;SDS011;5019;48.012;7.812;2023-04-09T01:48:17;8.83;;;7.00;;
9958;SDS011;5019;48.012;7.812;2023-04-09T01:50:43;7.70;;;6.33;;
9958;SDS011;5019;48.012;7.812;2023-04-09T01:53:09;12.77;;;6.40;;
9958;SDS011;5019;48.012;7.812;2023-04-09T01:55:35;6.57;;;5.57;;
9958;SDS011;5019;48.012;7.812;2023-04-09T01:58:01;11.07;;;6.27;;
9958;SDS011;5019;48.012;7.812;2023-04-09T02:00:30;7.10;;;6.17;;
9958;SDS011;5019;48.012;7.812;2023-04-09T02:03:10;10.93;;;5.67;;
9958;SDS011;5019;48.012;7.812;2023-04-09T02:05:43;7.13;;;5.67;;
9958;SDS011;5019;48.012;7.812;2023-04-09T02:08:11;7.80;;;5.50;;
9958;SDS011;5019;48.012;7.812;2023-04-09T02:10:37;10.10;;;6.53;;
9958;SDS011;5019;48.012;7.812;2023-04-09T02:13:05;10.97;;;5.43;;
9958;SDS011;5019;48.012;7.812;2023-04-09T02:15:33;7.73;;;6.97;;
9958;SDS011;5019;48.012;7.812;2023-04-09T02:18:01;9.20;;;6.40;;
9958;SDS011;5019;48.012;7.812;2023-04-09T02:20:27;8.30;;;5.40;;
9958;SDS011;5019;48.012;7.812;2023-04-09T02:22:53;9.93;;;5.80;;
9958;SDS011;5019;48.012;7.812;2023-04-09T02:25:20;9.20;;;6.00;;
9958;SDS011;5019;48.012;7.812;2023-04-09T02:27:46;12.20;;;6.90;;
9958;SDS011;5019;48.012;7.812;2023-04-09T02:30:12;6.83;;;5.33;;
9958;SDS011;5019;48.012;7.812;2023-04-09T02:32:38;4.93;;;4.10;;
9958;SDS011;5019;48.012;7.812;2023-04-09T02:35:04;5.57;;;4.30;;
9958;SDS011;5019;48.012;7.812;2023-04-09T02:37:30;7.43;;;5.30;;
9958;SDS011;5019;48.012;7.812;2023-04-09T02:39:56;6.47;;;5.17;;
9958;SDS011;5019;48.012;7.812;2023-04-09T02:42:22;8.70;;;6.10;;
9958;SDS011;5019;48.012;7.812;2023-04-09T02:44:48;7.80;;;5.03;;
9958;SDS011;5019;48.012;7.812;2023-04-09T02:47:14;9.27;;;5.43;;
9958;SDS011;5019;48.012;7.812;2023-04-09T02:49:40;8.40;;;5.83;;
9958;SDS011;5019;48.012;7.812;2023-04-09T02:52:06;8.57;;;5.43;;
9958;SDS011;5019;48.012;7.812;2023-04-09T02:54:32;8.00;;;5.20;;
9958;SDS011;5019;48.012;7.812;2023-04-09T02:56:58;6.03;;;5.00;;
9958;SDS011;5019;48.012;7.812;2023-04-09T02:59:24;6.70;;;5.13;;
9958;SDS011;5019;48.012;7.812;2023-04-09T03:01:50;8.10;;;6.33;;
9958;SDS011;5019;48.012;7.812;2023-04-09T03:04:16;10.40;;;6.17;;
9958;SDS011;5019;48.012;7.812;2023-04-09T03:06:42;9.47;;;6.47;;
9958;SDS011;5019;48.012;7.812;2023-04-09T03:09:08;7.20;;;5.00;;
9958;SDS011;5019;48.012;7.812;2023-04-09T03:11:35;6.90;;;5.80;;
9958;SDS011;5019;48.012;7.812;2023-04-09T03:14:01;7.47;;;5.50;;
9958;SDS011;5019;48.012;7.812;2023-04-09T03:16:27;6.33;;;5.30;;
9958;SDS011;5019;48.012;7.812;2023-04-09T03:18:52;8.53;;;6.23;;
9958;SDS011;5019;48.012;7.812;2023-04-09T03:21:18;9.30;;;5.80;;
9958;SDS011;5019;48.012;7.812;2023-04-09T03:23:45;4.83;;;4.13;;
9958;SDS011;5019;48.012;7.812;2023-04-09T03:26:11;8.07;;;5.87;;
9958;SDS011;5019;48.012;7.812;2023-04-09T03:28:36;6.07;;;5.50;;
9958;SDS011;5019;48.012;7.812;2023-04-09T03:31:02;6.43;;;4.83;;
9958;SDS011;5019;48.012;7.812;2023-04-09T03:33:28;8.70;;;4.40;;
9958;SDS011;5019;48.012;7.812;2023-04-09T03:35:54;7.80;;;5.30;;
9958;SDS011;5019;48.012;7.812;2023-04-09T03:38:20;6.93;;;5.93;;
9958;SDS011;5019;48.012;7.812;2023-04-09T03:40:46;6.77;;;5.30;;
9958;SDS011;5019;48.012;7.812;2023-04-09T03:43:12;7.37;;;5.87;;
9958;SDS011;5019;48.012;7.812;2023-04-09T03:45:38;6.97;;;6.00;;
9958;SDS011;5019;48.012;7.812;2023-04-09T03:48:04;5.87;;;5.10;;
9958;SDS011;5019;48.012;7.812;2023-04-09T03:50:30;8.53;;;6.30;;
9958;SDS011;5019;48.012;7.812;2023-04-09T03:52:56;9.13;;;6.00;;
9958;SDS011;5019;48.012;7.812;2023-04-09T03:55:22;8.40;;;6.87;;
9958;SDS011;5019;48.012;7.812;2023-04-09T03:57:49;7.57;;;6.13;;
9958;SDS011;5019;48.012;7.812;2023-04-09T04:00:15;6.73;;;6.10;;
9958;SDS011;5019;48.012;7.812;2023-04-09T04:02:41;6.07;;;5.23;;
9958;SDS011;5019;48.012;7.812;2023-04-09T04:05:07;6.93;;;5.27;;
9958;SDS011;5019;48.012;7.812;2023-04-09T04:07:33;9.93;;;6.33;;
9958;SDS011;5019;48.012;7.812;2023-04-09T04:09:59;7.40;;;4.80;;
9958;SDS011;5019;48.012;7.812;2023-04-09T04:12:25;8.20;;;5.27;;
9958;SDS011;5019;48.012;7.812;2023-04-09T04:14:51;6.80;;;5.20;;
9958;SDS011;5019;48.012;7.812;2023-04-09T04:17:17;6.10;;;5.33;;
9958;SDS011;5019;48.012;7.812;2023-04-09T04:19:43;7.73;;;5.87;;
9958;SDS011;5019;48.012;7.812;2023-04-09T04:22:09;12.50;;;7.03;;
9958;SDS011;5019;48.012;7.812;2023-04-09T04:24:35;7.67;;;5.77;;
9958;SDS011;5019;48.012;7.812;2023-04-09T04:27:01;8.40;;;6.37;;
9958;SDS011;5019;48.012;7.812;2023-04-09T04:29:27;9.37;;;6.40;;
9958;SDS011;5019;48.012;7.812;2023-04-09T04:31:53;8.60;;;5.23;;
9958;SDS011;5019;48.012;7.812;2023-04-09T04:34:19;8.27;;;5.50;;
9958;SDS011;5019;48.012;7.812;2023-04-09T04:36:45;9.80;;;5.93;;
9958;SDS011;5019;48.012;7.812;2023-04-09T04:39:11;7.17;;;6.47;;
9958;SDS011;5019;48.012;7.812;2023-04-09T04:41:37;8.00;;;5.87;;
9958;SDS011;5019;48.012;7.812;2023-04-09T04:44:03;12.27;;;6.30;;
9958;SDS011;5019;48.012;7.812;2023-04-09T04:46:29;10.93;;;6.10;;
9958;SDS011;5019;48.012;7.812;2023-04-09T04:48:55;6.20;;;5.57;;
9958;SDS011;5019;48.012;7.812;2023-04-09T04:51:21;6.57;;;5.83;;
9958;SDS011;5019;48.012;7.812;2023-04-09T04:53:47;8.20;;;5.60;;
9958;SDS011;5019;48.012;7.812;2023-04-09T04:56:13;9.50;;;6.50;;
9958;SDS011;5019;48.012;7.812;2023-04-09T04:58:39;7.87;;;5.60;;
9958;SDS011;5019;48.012;7.812;2023-04-09T05:01:05;5.80;;;5.30;;
9958;SDS011;5019;48.012;7.812;2023-04-09T05:03:31;6.17;;;5.50;;
9958;SDS011;5019;48.012;7.812;2023-04-09T05:05:57;8.50;;;5.60;;
9958;SDS011;5019;48.012;7.812;2023-04-09T05:08:23;8.37;;;5.73;;
9958;SDS011;5019;48.012;7.812;2023-04-09T05:10:49;6.67;;;5.37;;
9958;SDS011;5019;48.012;7.812;2023-04-09T05:13:15;14.70;;;6.43;;
9958;SDS011;5019;48.012;7.812;2023-04-09T05:15:42;7.60;;;5.60;;
9958;SDS011;5019;48.012;7.812;2023-04-09T05:18:08;8.10;;;6.50;;
9958;SDS011;5019;48.012;7.812;2023-04-09T05:20:34;8.27;;;5.50;;
9958;SDS011;5019;48.012;7.812;2023-04-09T05:23:00;9.03;;;5.53;;
9958;SDS011;5019;48.012;7.812;2023-04-09T05:25:26;7.10;;;4.73;;
9958;SDS011;5019;48.012;7.812;2023-04-09T05:27:52;8.27;;;5.03;;
9958;SDS011;5019;48.012;7.812;2023-04-09T05:30:18;13.20;;;6.63;;
9958;SDS011;5019;48.012;7.812;2023-04-09T05:32:45;7.30;;;5.20;;
9958;SDS011;5019;48.012;7.812;2023-04-09T05:35:11;6.83;;;4.60;;
9958;SDS011;5019;48.012;7.812;2023-04-09T05:37:37;13.57;;;5.60;;
9958;SDS011;5019;48.012;7.812;2023-04-09T05:40:03;6.63;;;4.77;;
9958;SDS011;5019;48.012;7.812;2023-04-09T05:42:29;9.53;;;6.10;;
9958;SDS011;5019;48.012;7.812;2023-04-09T05:44:55;6.10;;;5.13;;
9958;SDS011;5019;48.012;7.812;2023-04-09T05:47:21;6.13;;;5.33;;
9958;SDS011;5019;48.012;7.812;2023-04-09T05:49:47;9.33;;;4.77;;
9958;SDS011;5019;48.012;7.812;2023-04-09T05:52:13;9.60;;;4.53;;
9958;SDS011;5019;48.012;7.812;2023-04-09T05:54:40;9.80;;;4.80;;
9958;SDS011;5019;48.012;7.812;2023-04-09T05:57:06;5.30;;;4.70;;
9958;SDS011;5019;48.012;7.812;2023-04-09T05:59:32;7.37;;;5.43;;
9958;SDS011;5019;48.012;7.812;2023-04-09T06:01:58;9.47;;;5.83;;
9958;SDS011;5019;48.012;7.812;2023-04-09T06:04:24;7.30;;;4.60;;
9958;SDS011;5019;48.012;7.812;2023-04-09T06:06:50;6.77;;;4.27;;
9958;SDS011;5019;48.012;7.812;2023-04-09T06:09:16;7.73;;;4.60;;
9958;SDS011;5019;48.012;7.812;2023-04-09T06:11:42;7.60;;;4.77;;
9958;SDS011;5019;48.012;7.812;2023-04-09T06:14:08;4.43;;;4.03;;
9958;SDS011;5019;48.012;7.812;2023-04-09T06:16:36;5.40;;;3.80;;
9958;SDS011;5019;48.012;7.812;2023-04-09T06:19:02;10.73;;;6.20;;
9958;SDS011;5019;48.012;7.812;2023-04-09T06:21:28;11.90;;;4.50;;
9958;SDS011;5019;48.012;7.812;2023-04-09T06:23:55;8.23;;;4.33;;
9958;SDS011;5019;48.012;7.812;2023-04-09T06:26:21;5.60;;;4.30;;
9958;SDS011;5019;48.012;7.812;2023-04-09T06:28:47;7.77;;;4.90;;
9958;SDS011;5019;48.012;7.812;2023-04-09T06:31:13;5.27;;;4.33;;
9958;SDS011;5019;48.012;7.812;2023-04-09T06:33:39;7.90;;;4.73;;
9958;SDS011;5019;48.012;7.812;2023-04-09T06:36:05;9.60;;;6.03;;
9958;SDS011;5019;48.012;7.812;2023-04-09T06:38:31;6.97;;;5.10;;
9958;SDS011;5019;48.012;7.812;2023-04-09T06:40:57;5.73;;;4.20;;
9958;SDS011;5019;48.012;7.812;2023-04-09T06:43:23;8.87;;;3.90;;
9958;SDS011;5019;48.012;7.812;2023-04-09T06:45:49;7.17;;;4.47;;
9958;SDS011;5019;48.012;7.812;2023-04-09T06:48:16;6.53;;;4.47;;
9958;SDS011;5019;48.012;7.812;2023-04-09T06:50:42;9.83;;;5.13;;
9958;SDS011;5019;48.012;7.812;2023-04-09T06:53:08;6.90;;;4.20;;
9958;SDS011;5019;48.012;7.812;2023-04-09T06:55:34;9.83;;;4.87;;
9958;SDS011;5019;48.012;7.812;2023-04-09T06:58:00;5.10;;;3.90;;
9958;SDS011;5019;48.012;7.812;2023-04-09T07:00:26;5.63;;;3.77;;
9958;SDS011;5019;48.012;7.812;2023-04-09T07:02:52;9.80;;;4.43;;
9958;SDS011;5019;48.012;7.812;2023-04-09T07:05:18;6.37;;;4.60;;
9958;SDS011;5019;48.012;7.812;2023-04-09T07:07:44;13.50;;;4.80;;
9958;SDS011;5019;48.012;7.812;2023-04-09T07:10:10;5.87;;;3.93;;
9958;SDS011;5019;48.012;7.812;2023-04-09T07:12:36;6.23;;;4.57;;
9958;SDS011;5019;48.012;7.812;2023-04-09T07:15:06;7.70;;;4.20;;
9958;SDS011;5019;48.012;7.812;2023-04-09T07:17:33;7.10;;;4.80;;
9958;SDS011;5019;48.012;7.812;2023-04-09T07:19:59;5.33;;;4.20;;
9958;SDS011;5019;48.012;7.812;2023-04-09T07:22:25;4.60;;;3.90;;
9958;SDS011;5019;48.012;7.812;2023-04-09T07:24:52;5.40;;;3.50;;
9958;SDS011;5019;48.012;7.812;2023-04-09T07:27:19;7.47;;;4.97;;
9958;SDS011;5019;48.012;7.812;2023-04-09T07:29:45;5.33;;;4.30;;
9958;SDS011;5019;48.012;7.812;2023-04-09T07:32:11;5.50;;;4.13;;
9958;SDS011;5019;48.012;7.812;2023-04-09T07:34:37;3.83;;;3.40;;
9958;SDS011;5019;48.012;7.812;2023-04-09T07:37:03;5.63;;;4.63;;
9958;SDS011;5019;48.012;7.812;2023-04-09T07:39:30;6.27;;;4.10;;
9958;SDS011;5019;48.012;7.812;2023-04-09T07:41:56;5.80;;;3.57;;
9958;SDS011;5019;48.012;7.812;2023-04-09T07:44:22;5.17;;;4.00;;
9958;SDS011;5019;48.012;7.812;2023-04-09T07:46:48;4.80;;;3.57;;
9958;SDS011;5019;48.012;7.812;2023-04-09T07:49:14;2.93;;;2.60;;
9958;SDS011;5019;48.012;7.812;2023-04-09T07:51:41;3.97;;;2.90;;
9958;SDS011;5019;48.012;7.812;2023-04-09T07:54:07;7.30;;;3.10;;
9958;SDS011;5019;48.012;7.812;2023-04-09T07:56:33;4.33;;;3.03;;
9958;SDS011;5019;48.012;7.812;2023-04-09T07:58:59;6.90;;;2.63;;
9958;SDS011;5019;48.012;7.812;2023-04-09T08:01:25;4.30;;;2.77;;
9958;SDS011;5019;48.012;7.812;2023-04-09T08:03:51;3.60;;;3.20;;
9958;SDS011;5019;48.012;7.812;2023-04-09T08:06:17;4.43;;;2.60;;
9958;SDS011;5019;48.012;7.812;2023-04-09T08:08:43;4.27;;;3.20;;
9958;SDS011;5019;48.012;7.812;2023-04-09T08:11:10;3.43;;;2.70;;
9958;SDS011;5019;48.012;7.812;2023-04-09T08:13:36;4.20;;;3.00;;
9958;SDS011;5019;48.012;7.812;2023-04-09T08:16:02;3.23;;;2.43;;
9958;SDS011;5019;48.012;7.812;2023-04-09T08:18:28;4.97;;;2.77;;
9958;SDS011;5019;48.012;7.812;2023-04-09T08:20:55;2.50;;;2.30;;
9958;SDS011;5019;48.012;7.812;2023-04-09T08:23:21;3.27;;;2.33;;
9958;SDS011;5019;48.012;7.812;2023-04-09T08:25:47;1.70;;;1.60;;
9958;SDS011;5019;48.012;7.812;2023-04-09T08:28:13;3.50;;;2.60;;
9958;SDS011;5019;48.012;7.812;2023-04-09T08:30:39;5.90;;;2.73;;
9958;SDS011;5019;48.012;7.812;2023-04-09T08:33:05;3.20;;;2.57;;
9958;SDS011;5019;48.012;7.812;2023-04-09T08:35:31;2.83;;;1.70;;
9958;SDS011;5019;48.012;7.812;2023-04-09T08:37:58;2.50;;;2.30;;
9958;SDS011;5019;48.012;7.812;2023-04-09T08:40:24;2.20;;;1.90;;
9958;SDS011;5019;48.012;7.812;2023-04-09T08:42:54;1.33;;;1.23;;
9958;SDS011;5019;48.012;7.812;2023-04-09T08:45:23;1.90;;;1.60;;
9958;SDS011;5019;48.012;7.812;2023-04-09T08:47:49;2.03;;;1.70;;
9958;SDS011;5019;48.012;7.812;2023-04-09T08:50:16;2.90;;;1.93;;
9958;SDS011;5019;48.012;7.812;2023-04-09T08:52:43;3.70;;;2.03;;
9958;SDS011;5019;48.012;7.812;2023-04-09T08:55:11;2.10;;;1.87;;
9958;SDS011;5019;48.012;7.812;2023-04-09T08:57:37;2.03;;;1.73;;
9958;SDS011;5019;48.012;7.812;2023-04-09T09:00:03;2.40;;;1.83;;
9958;SDS011;5019;48.012;7.812;2023-04-09T09:02:29;1.80;;;1.70;;
9958;SDS011;5019;48.012;7.812;2023-04-09T09:04:55;2.93;;;2.23;;
9958;SDS011;5019;48.012;7.812;2023-04-09T09:07:28;6.33;;;2.73;;
9958;SDS011;5019;48.012;7.812;2023-04-09T09:09:55;2.23;;;2.03;;
9958;SDS011;5019;48.012;7.812;2023-04-09T09:12:35;2.53;;;2.00;;
9958;SDS011;5019;48.012;7.812;2023-04-09T09:15:02;2.37;;;1.80;;
9958;SDS011;5019;48.012;7.812;2023-04-09T09:17:29;2.23;;;2.07;;
9958;SDS011;5019;48.012;7.812;2023-04-09T09:19:55;2.40;;;1.70;;
9958;SDS011;5019;48.012;7.812;2023-04-09T09:22:21;2.90;;;1.60;;
9958;SDS011;5019;48.012;7.812;2023-04-09T09:24:48;2.50;;;1.60;;
9958;SDS011;5019;48.012;7.812;2023-04-09T09:27:36;1.60;;;1.50;;
9958;SDS011;5019;48.012;7.812;2023-04-09T09:30:03;3.10;;;2.20;;
9958;SDS011;5019;48.012;7.812;2023-04-09T09:32:29;4.47;;;2.43;;
9958;SDS011;5019;48.012;7.812;2023-04-09T09:35:05;1.47;;;1.37;;
9958;SDS011;5019;48.012;7.812;2023-04-09T09:37:31;1.50;;;1.30;;
9958;SDS011;5019;48.012;7.812;2023-04-09T09:39:58;2.50;;;1.50;;
9958;SDS011;5019;48.012;7.812;2023-04-09T09:42:24;2.60;;;1.97;;
9958;SDS011;5019;48.012;7.812;2023-04-09T09:44:53;3.67;;;2.23;;
9958;SDS011;5019;48.012;7.812;2023-04-09T09:47:20;1.80;;;1.70;;
9958;SDS011;5019;48.012;7.812;2023-04-09T09:49:47;2.23;;;1.80;;
9958;SDS011;5019;48.012;7.812;2023-04-09T09:52:14;2.73;;;1.97;;
9958;SDS011;5019;48.012;7.812;2023-04-09T09:54:41;3.33;;;2.30;;
9958;SDS011;5019;48.012;7.812;2023-04-09T09:57:10;1.80;;;1.70;;
9958;SDS011;5019;48.012;7.812;2023-04-09T09:59:40;3.57;;;2.40;;
9958;SDS011;5019;48.012;7.812;2023-04-09T10:02:18;3.17;;;1.83;;
9958;SDS011;5019;48.012;7.812;2023-04-09T10:04:44;3.23;;;1.87;;
9958;SDS011;5019;48.012;7.812;2023-04-09T10:07:10;2.73;;;2.43;;
9958;SDS011;5019;48.012;7.812;2023-04-09T10:09:38;2.10;;;1.83;;
9958;SDS011;5019;48.012;7.812;2023-04-09T10:12:05;2.33;;;2.17;;
9958;SDS011;5019;48.012;7.812;2023-04-09T10:14:32;2.50;;;2.20;;
9958;SDS011;5019;48.012;7.812;2023-04-09T10:16:59;2.70;;;1.97;;
9958;SDS011;5019;48.012;7.812;2023-04-09T10:19:28;1.50;;;1.40;;
9958;SDS011;5019;48.012;7.812;2023-04-09T10:21:58;2.60;;;2.00;;
9958;SDS011;5019;48.012;7.812;2023-04-09T10:24:28;3.27;;;2.33;;
9958;SDS011;5019;48.012;7.812;2023-04-09T10:26:56;1.70;;;1.60;;
9958;SDS011;5019;48.012;7.812;2023-04-09T10:29:26;2.50;;;2.30;;
9958;SDS011;5019;48.012;7.812;2023-04-09T10:34:22;2.13;;;1.83;;
9958;SDS011;5019;48.012;7.812;2023-04-09T10:36:49;2.90;;;2.23;;
9958;SDS011;5019;48.012;7.812;2023-04-09T10:39:17;2.83;;;2.50;;
9958;SDS011;5019;48.012;7.812;2023-04-09T10:41:43;1.80;;;1.70;;
9958;SDS011;5019;48.012;7.812;2023-04-09T10:44:18;2.43;;;1.93;;
9958;SDS011;5019;48.012;7.812;2023-04-09T10:46:44;1.70;;;1.60;;
9958;SDS011;5019;48.012;7.812;2023-04-09T10:49:11;3.00;;;2.40;;
9958;SDS011;5019;48.012;7.812;2023-04-09T10:51:38;1.80;;;1.70;;
9958;SDS011;5019;48.012;7.812;2023-04-09T10:54:04;1.60;;;1.47;;
9958;SDS011;5019;48.012;7.812;2023-04-09T10:56:30;3.13;;;1.43;;
9958;SDS011;5019;48.012;7.812;2023-04-09T10:58:56;1.73;;;1.60;;
9958;SDS011;5019;48.012;7.812;2023-04-09T11:01:22;2.23;;;1.80;;
9958;SDS011;5019;48.012;7.812;2023-04-09T11:04:15;1.73;;;1.60;;
9958;SDS011;5019;48.012;7.812;2023-04-09T11:06:37;4.47;;;2.20;;
9958;SDS011;5019;48.012;7.812;2023-04-09T11:09:05;1.93;;;1.60;;
9958;SDS011;5019;48.012;7.812;2023-04-09T11:11:32;1.90;;;1.33;;
9958;SDS011;5019;48.012;7.812;2023-04-09T11:13:58;1.30;;;1.20;;
9958;SDS011;5019;48.012;7.812;2023-04-09T11:16:27;2.33;;;1.33;;
9958;SDS011;5019;48.012;7.812;2023-04-09T11:18:53;2.23;;;1.73;;
9958;SDS011;5019;48.012;7.812;2023-04-09T11:21:21;2.10;;;1.67;;
9958;SDS011;5019;48.012;7.812;2023-04-09T11:23:51;1.47;;;1.37;;
9958;SDS011;5019;48.012;7.812;2023-04-09T11:26:33;2.47;;;1.73;;
9958;SDS011;5019;48.012;7.812;2023-04-09T11:29:06;1.93;;;1.60;;
9958;SDS011;5019;48.012;7.812;2023-04-09T11:31:33;1.57;;;1.20;;
9958;SDS011;5019;48.012;7.812;2023-04-09T11:33:59;1.83;;;1.43;;
9958;SDS011;5019;48.012;7.812;2023-04-09T11:36:25;4.10;;;3.37;;
9958;SDS011;5019;48.012;7.812;2023-04-09T11:38:54;1.50;;;1.37;;
9958;SDS011;5019;48.012;7.812;2023-04-09T11:41:33;3.27;;;1.70;;
9958;SDS011;5019;48.012;7.812;2023-04-09T11:44:08;2.17;;;1.97;;
9958;SDS011;5019;48.012;7.812;2023-04-09T11:46:34;1.47;;;1.37;;
9958;SDS011;5019;48.012;7.812;2023-04-09T11:49:01;1.90;;;1.63;;
9958;SDS011;5019;48.012;7.812;2023-04-09T11:51:27;2.70;;;2.20;;
9958;SDS011;5019;48.012;7.812;2023-04-09T11:53:55;2.40;;;2.17;;
9958;SDS011;5019;48.012;7.812;2023-04-09T11:56:30;1.87;;;1.77;;
9958;SDS011;5019;48.012;7.812;2023-04-09T11:58:56;1.77;;;1.67;;
9958;SDS011;5019;48.012;7.812;2023-04-09T12:01:22;3.37;;;2.37;;
9958;SDS011;5019;48.012;7.812;2023-04-09T12:03:52;2.77;;;2.57;;
9958;SDS011;5019;48.012;7.812;2023-04-09T12:06:21;2.50;;;2.30;;
9958;SDS011;5019;48.012;7.812;2023-04-09T12:08:54;2.40;;;1.87;;
9958;SDS011;5019;48.012;7.812;2023-04-09T12:11:25;2.50;;;2.07;;
9958;SDS011;5019;48.012;7.812;2023-04-09T12:13:57;1.80;;;1.70;;
9958;SDS011;5019;48.012;7.812;2023-04-09T12:16:23;2.10;;;1.90;;
9958;SDS011;5019;48.012;7.812;2023-04-09T12:18:49;3.23;;;2.60;;
9958;SDS011;5019;48.012;7.812;2023-04-09T12:21:22;6.27;;;2.37;;
9958;SDS011;5019;48.012;7.812;2023-04-09T12:23:48;1.93;;;1.67;;
9958;SDS011;5019;48.012;7.812;2023-04-09T12:26:14;1.77;;;1.60;;
9958;SDS011;5019;48.012;7.812;2023-04-09T12:28:40;1.93;;;1.70;;
9958;SDS011;5019;48.012;7.812;2023-04-09T12:31:09;3.33;;;1.83;;
9958;SDS011;5019;48.012;7.812;2023-04-09T12:33:35;1.73;;;1.53;;
9958;SDS011;5019;48.012;7.812;2023-04-09T12:36:03;2.10;;;1.60;;
9958;SDS011;5019;48.012;7.812;2023-04-09T12:38:29;1.63;;;1.53;;
9958;SDS011;5019;48.012;7.812;2023-04-09T12:40:55;2.50;;;1.87;;
9958;SDS011;5019;48.012;7.812;2023-04-09T12:43:21;2.30;;;2.10;;
9958;SDS011;5019;48.012;7.812;2023-04-09T12:45:47;5.33;;;2.33;;
9958;SDS011;5019;48.012;7.812;2023-04-09T12:48:13;2.30;;;1.90;;
9958;SDS011;5019;48.012;7.812;2023-04-09T12:50:39;1.80;;;1.63;;
9958;SDS011;5019;48.012;7.812;2023-04-09T12:53:05;2.03;;;1.83;;
9958;SDS011;5019;48.012;7.812;2023-04-09T12:55:31;1.97;;;1.70;;
9958;SDS011;5019;48.012;7.812;2023-04-09T12:57:57;1.83;;;1.40;;
9958;SDS011;5019;48.012;7.812;2023-04-09T13:00:23;1.80;;;1.57;;
9958;SDS011;5019;48.012;7.812;2023-04-09T13:02:49;1.60;;;1.50;;
9958;SDS011;5019;48.012;7.812;2023-04-09T13:05:16;2.00;;;1.80;;
9958;SDS011;5019;48.012;7.812;2023-04-09T13:07:42;2.77;;;1.97;;
9958;SDS011;5019;48.012;7.812;2023-04-09T13:10:08;1.47;;;1.37;;
9958;SDS011;5019;48.012;7.812;2023-04-09T13:12:34;4.17;;;2.50;;
9958;SDS011;5019;48.012;7.812;2023-04-09T13:15:00;2.43;;;1.70;;
9958;SDS011;5019;48.012;7.812;2023-04-09T13:17:27;2.43;;;2.33;;
9958;SDS011;5019;48.012;7.812;2023-04-09T13:19:53;2.07;;;1.60;;
9958;SDS011;5019;48.012;7.812;2023-04-09T13:22:19;2.43;;;1.90;;
9958;SDS011;5019;48.012;7.812;2023-04-09T13:24:45;2.33;;;1.70;;
9958;SDS011;5019;48.012;7.812;2023-04-09T13:27:11;2.47;;;1.77;;
9958;SDS011;5019;48.012;7.812;2023-04-09T13:29:37;1.63;;;1.53;;
9958;SDS011;5019;48.012;7.812;2023-04-09T13:32:03;2.30;;;1.67;;
9958;SDS011;5019;48.012;7.812;2023-04-09T13:34:31;1.73;;;1.63;;
9958;SDS011;5019;48.012;7.812;2023-04-09T13:36:58;2.40;;;1.80;;
9958;SDS011;5019;48.012;7.812;2023-04-09T13:39:23;1.90;;;1.27;;
9958;SDS011;5019;48.012;7.812;2023-04-09T13:41:50;1.93;;;1.63;;
9958;SDS011;5019;48.012;7.812;2023-04-09T13:44:16;2.03;;;1.40;;
9958;SDS011;5019;48.012;7.812;2023-04-09T13:46:42;1.63;;;1.33;;
9958;SDS011;5019;48.012;7.812;2023-04-09T13:49:08;1.50;;;1.40;;
9958;SDS011;5019;48.012;7.812;2023-04-09T13:51:33;2.43;;;2.10;;
9958;SDS011;5019;48.012;7.812;2023-04-09T13:53:59;1.73;;;1.53;;
9958;SDS011;5019;48.012;7.812;2023-04-09T13:56:25;1.50;;;1.30;;
9958;SDS011;5019;48.012;7.812;2023-04-09T13:58:52;2.27;;;1.80;;
9958;SDS011;5019;48.012;7.812;2023-04-09T14:01:18;1.63;;;1.43;;
9958;SDS011;5019;48.012;7.812;2023-04-09T14:03:44;2.23;;;2.13;;
9958;SDS011;5019;48.012;7.812;2023-04-09T14:06:10;3.30;;;2.10;;
9958;SDS011;5019;48.012;7.812;2023-04-09T14:08:37;2.33;;;2.00;;
9958;SDS011;5019;48.012;7.812;2023-04-09T14:11:03;1.70;;;1.40;;
9958;SDS011;5019;48.012;7.812;2023-04-09T14:13:29;1.93;;;1.77;;
9958;SDS011;5019;48.012;7.812;2023-04-09T14:15:55;2.03;;;1.80;;
9958;SDS011;5019;48.012;7.812;2023-04-09T14:18:21;1.53;;;1.30;;
9958;SDS011;5019;48.012;7.812;2023-04-09T14:20:47;1.30;;;1.20;;
9958;SDS011;5019;48.012;7.812;2023-04-09T14:23:13;1.50;;;1.40;;
9958;SDS011;5019;48.012;7.812;2023-04-09T14:25:39;1.43;;;1.33;;
9958;SDS011;5019;48.012;7.812;2023-04-09T14:28:05;2.27;;;1.40;;
9958;SDS011;5019;48.012;7.812;2023-04-09T14:30:31;1.73;;;1.60;;
9958;SDS011;5019;48.012;7.812;2023-04-09T14:32:57;1.60;;;1.50;;
9958;SDS011;5019;48.012;7.812;2023-04-09T14:35:23;1.97;;;1.57;;
9958;SDS011;5019;48.012;7.812;2023-04-09T14:37:50;1.73;;;1.63;;
9958;SDS011;5019;48.012;7.812;2023-04-09T14:40:16;2.20;;;1.80;;
9958;SDS011;5019;48.012;7.812;2023-04-09T14:42:42;1.77;;;1.67;;
9958;SDS011;5019;48.012;7.812;2023-04-09T14:45:08;1.80;;;1.63;;
9958;SDS011;5019;48.012;7.812;2023-04-09T14:47:34;1.50;;;1.40;;
9958;SDS011;5019;48.012;7.812;2023-04-09T14:50:00;1.53;;;1.43;;
9958;SDS011;5019;48.012;7.812;2023-04-09T14:52:26;2.67;;;1.70;;
9958;SDS011;5019;48.012;7.812;2023-04-09T14:54:54;1.67;;;1.30;;
9958;SDS011;5019;48.012;7.812;2023-04-09T14:57:20;1.43;;;1.30;;
9958;SDS011;5019;48.012;7.812;2023-04-09T14:59:46;2.83;;;1.47;;
9958;SDS011;5019;48.012;7.812;2023-04-09T15:02:12;1.80;;;1.70;;
9958;SDS011;5019;48.012;7.812;2023-04-09T15:04:38;1.63;;;1.50;;
9958;SDS011;5019;48.012;7.812;2023-04-09T15:07:04;1.90;;;1.77;;
9958;SDS011;5019;48.012;7.812;2023-04-09T15:09:31;2.20;;;1.60;;
9958;SDS011;5019;48.012;7.812;2023-04-09T15:11:57;1.90;;;1.70;;
9958;SDS011;5019;48.012;7.812;2023-04-09T15:14:23;1.90;;;1.20;;
9958;SDS011;5019;48.012;7.812;2023-04-09T15:16:49;1.60;;;1.50;;
9958;SDS011;5019;48.012;7.812;2023-04-09T15:19:15;2.17;;;1.60;;
9958;SDS011;5019;48.012;7.812;2023-04-09T15:21:41;1.87;;;1.60;;
9958;SDS011;5019;48.012;7.812;2023-04-09T15:24:07;2.20;;;2.00;;